Главная страница
METAR-TAF:

METAR-TAF

Аэропорты :

Элефтериос Венизелос

Афины, Греция

широта: 37-56N, долгота: 023-56E, высота над уровнем моря: 94 м

Текущие метеонаблюдения

Эта сводка был подготовлена 25 минут назад, в 06:20 UTC
Ветер 4 Узел от северный, изменяющийся между западный-юго-западный и южный
Температура 29°C
Влажность 37%
Давление 1012 hPa
Видимость 10 км и более
Нет облачности ниже 1500 м, и нет кучево-дождевой облачности

METAR: LGAV 170620Z 01004KT 240V190 CAVOK 29/13 Q1012 NOSIG

Время: 09:45 (06:45 UTC)

Прогноз

Эта сводка был подготовлена 1 час и 45 минут назад, в 05:00 UTC
Прогноз действительный с 17-го 06 UTC до 18-го 06 UTC
Ветер 5 Узел переменных направлений
Видимость 10 км и более
небольшая облачность на высоте 2000 фута
изменения
С 17-го 06 UTC до 17-го 08 UTC
Ветер 15 Узел от северо-восточный
изменения
С 17-го 19 UTC до 17-го 21 UTC
Ветер 5 Узел от северно-северо-западный

TAF: LGAV 170500Z 1706/1806 VRB05KT 9999 FEW020 BECMG 1706/1708 04015KT BECMG 1719/1721 34005KT

Метеонаблюдения и прогнозы для более 4000 аэропортов (сводки METAR и TAF).

Имеющиеся станции представлены на карте желтыми и красными точками.

Чтобы увидеть название станции, наведите на нее мышь.

Затем щелкните, чтобы увидеть метеонаблюдения и метеопрогнозы.

Управление картой: чтобы увеличить масштаб, щелкните зеленые кнопки с черным крестиком; чтобы уменьшить масштаб, щелкните зеленую кнопку с тире; для просмотра соседних карт щелкайте зеленые стрелки.


METAR-TAF: